| time (UTC) | temp F | wind direction | speed MPH | gust MPH | rain 1hr in | rain 24hr in | rain mn in | humidity % | barometer mb |
| 20260507230206 | 59 | 303 | 7.0 | 14.0 | 0.00 | 0.00 | 0.00 | 27 | |
| 20260507225206 | 60 | 309 | 10.0 | 17.0 | 0.00 | 0.00 | 0.00 | 27 | |
| 20260507224206 | 60 | 4 | 5.0 | 15.0 | 0.00 | 0.00 | 0.00 | 29 | |
| 20260507223205 | 60 | 14 | 6.0 | 20.0 | 0.00 | 0.00 | 0.00 | 30 | |
| 20260507222205 | 60 | 302 | 7.0 | 18.0 | 0.00 | 0.00 | 0.00 | 30 | |
| 20260507221206 | 61 | 4 | 4.0 | 14.0 | 0.00 | 0.00 | 0.00 | 33 | |
| 20260507220205 | 60 | 338 | 6.0 | 18.0 | 0.00 | 0.00 | 0.00 | 30 | |
| 20260507215205 | 60 | 325 | 6.0 | 15.0 | 0.00 | 0.00 | 0.00 | 31 | |
| 20260507214205 | 60 | 320 | 6.0 | 15.0 | 0.00 | 0.00 | 0.00 | 33 | |
| 20260507213206 | 60 | 292 | 4.0 | 15.0 | 0.00 | 0.00 | 0.00 | 33 | |
| 20260507212206 | 60 | 277 | 5.0 | 14.0 | 0.00 | 0.00 | 0.00 | 34 | |
| 20260507211206 | 60 | 345 | 6.0 | 16.0 | 0.00 | 0.00 | 0.00 | 34 | |
| 20260507210206 | 60 | 313 | 5.0 | 14.0 | 0.00 | 0.00 | 0.00 | 34 | |
| 20260507205205 | 59 | 328 | 6.0 | 16.0 | 0.00 | 0.00 | 0.00 | 34 | |
| 20260507204205 | 61 | 313 | 6.0 | 16.0 | 0.00 | 0.00 | 0.00 | 34 | |
| 20260507203208 | 60 | 315 | 5.0 | 14.0 | 0.00 | 0.00 | 0.00 | 35 | |
| 20260507202206 | 58 | 308 | 6.0 | 12.0 | 0.00 | 0.00 | 0.00 | 38 | |
| 20260507201206 | 57 | 302 | 8.0 | 17.0 | 0.00 | 0.00 | 0.00 | 39 | |
| 20260507200206 | 58 | 326 | 3.0 | 12.0 | 0.00 | 0.00 | 0.00 | 39 | |
| 20260507195205 | 59 | 22 | 3.0 | 9.0 | 0.00 | 0.00 | 0.00 | 37 | |
| 20260507194206 | 59 | 274 | 6.0 | 13.0 | 0.00 | 0.00 | 0.00 | 40 | |
| 20260507193206 | 57 | 314 | 5.0 | 12.0 | 0.00 | 0.00 | 0.00 | 42 | |
| 20260507192206 | 55 | 321 | 6.0 | 15.0 | 0.00 | 0.00 | 0.00 | 51 | |
| 20260507191206 | 56 | 274 | 7.0 | 15.0 | 0.00 | 0.00 | 0.00 | 41 | |
| 20260507190206 | 58 | 311 | 5.0 | 8.0 | 0.00 | 0.00 | 0.00 | 39 | |
| 20260507185205 | 58 | 65 | 1.0 | 6.0 | 0.00 | 0.00 | 0.00 | 40 | |
| 20260507184205 | 57 | 334 | 2.0 | 9.0 | 0.00 | 0.00 | 0.00 | 41 | |
| 20260507183206 | 58 | 310 | 2.0 | 6.0 | 0.00 | 0.00 | 0.00 | 39 | |
| 20260507182217 | 57 | 12 | 2.0 | 8.0 | 0.00 | 0.00 | 0.00 | 45 | |
| 20260507181206 | 56 | 242 | 3.0 | 14.0 | 0.00 | 0.00 | 0.00 | 48 | |
| 20260507180206 | 55 | 234 | 5.0 | 12.0 | 0.00 | 0.00 | 0.00 | 42 | |
| 20260507175205 | 56 | 272 | 3.0 | 6.0 | 0.00 | 0.00 | 0.00 | 41 | |
| 20260507174206 | 56 | 336 | 5.0 | 8.0 | 0.00 | 0.00 | 0.00 | 41 | |
| 20260507173206 | 56 | 240 | 2.0 | 8.0 | 0.00 | 0.00 | 0.00 | 41 | |
| 20260507172206 | 57 | 213 | 2.0 | 9.0 | 0.00 | 0.00 | 0.00 | 38 | |
| 20260507171206 | 59 | 241 | 3.0 | 9.0 | 0.00 | 0.00 | 0.00 | 37 | |
| 20260507170206 | 59 | 186 | 2.0 | 13.0 | 0.00 | 0.00 | 0.00 | 39 | |
| 20260507165205 | 58 | 243 | 6.0 | 14.0 | 0.00 | 0.00 | 0.00 | 38 | |
| 20260507164206 | 57 | 233 | 5.0 | 12.0 | 0.00 | 0.00 | 0.00 | 37 | |
| 20260507163209 | 57 | 232 | 3.0 | 9.0 | 0.00 | 0.00 | 0.00 | 41 | |
| 20260507162205 | 56 | 243 | 3.0 | 9.0 | 0.00 | 0.00 | 0.00 | 40 | |
| 20260507161206 | 56 | 250 | 4.0 | 10.0 | 0.00 | 0.00 | 0.00 | 39 | |
| 20260507160205 | 55 | 215 | 1.0 | 7.0 | 0.00 | 0.00 | 0.00 | 43 | |
| 20260507155205 | 55 | 97 | 3.0 | 8.0 | 0.00 | 0.00 | 0.00 | 43 | |
| 20260507154205 | 54 | 218 | 3.0 | 7.0 | 0.00 | 0.00 | 0.00 | 42 | |
| 20260507153205 | 54 | 76 | 2.0 | 7.0 | 0.00 | 0.00 | 0.00 | 44 | |
| 20260507152206 | 53 | 169 | 1.0 | 8.0 | 0.00 | 0.00 | 0.00 | 46 | |
| 20260507151206 | 52 | 273 | 4.0 | 9.0 | 0.00 | 0.00 | 0.00 | 43 | |
| 20260507150206 | 52 | 237 | 3.0 | 8.0 | 0.00 | 0.00 | 0.00 | 43 | |
| 20260507145205 | 52 | 174 | 3.0 | 6.0 | 0.00 | 0.00 | 0.00 | 43 | |
| 20260507144205 | 51 | 243 | 3.0 | 8.0 | 0.00 | 0.00 | 0.00 | 44 | |
| 20260507143206 | 51 | 214 | 2.0 | 6.0 | 0.00 | 0.00 | 0.00 | 47 | |
| 20260507142205 | 49 | 246 | 1.0 | 7.0 | 0.00 | 0.00 | 0.00 | 53 | |
| 20260507141206 | 47 | 284 | 3.0 | 7.0 | 0.00 | 0.00 | 0.00 | 53 | |
| 20260507140206 | 47 | 230 | 4.0 | 7.0 | 0.00 | 0.00 | 0.00 | 53 | |
| 20260507135206 | 46 | 268 | 3.0 | 8.0 | 0.00 | 0.00 | 0.00 | 54 | |
| 20260507134205 | 45 | 246 | 3.0 | 7.0 | 0.00 | 0.00 | 0.00 | 57 | |
| 20260507133206 | 44 | 233 | 2.0 | 9.0 | 0.00 | 0.00 | 0.00 | 60 | |
| 20260507132205 | 44 | 260 | 5.0 | 10.0 | 0.00 | 0.00 | 0.00 | 58 | |
| 20260507131205 | 43 | 218 | 3.0 | 7.0 | 0.00 | 0.00 | 0.00 | 62 | |
| 20260507130206 | 41 | 264 | 2.0 | 6.0 | 0.00 | 0.00 | 0.00 | 64 | |
| 20260507125205 | 40 | 222 | 2.0 | 7.0 | 0.00 | 0.00 | 0.00 | 65 | |
| 20260507124206 | 39 | 220 | 2.0 | 5.0 | 0.00 | 0.00 | 0.00 | 67 | |
| 20260507123209 | 38 | 197 | 2.0 | 6.0 | 0.00 | 0.00 | 0.00 | 69 | |
| 20260507122206 | 37 | 230 | 1.0 | 5.0 | 0.00 | 0.00 | 0.00 | 72 | |
| 20260507121206 | 37 | 240 | 2.0 | 5.0 | 0.00 | 0.00 | 0.00 | 72 | |
| 20260507120206 | 37 | 235 | 2.0 | 3.0 | 0.00 | 0.00 | 0.00 | 72 | |
| 20260507115206 | 37 | 252 | 1.0 | 5.0 | 0.00 | 0.00 | 0.00 | 72 | |
| 20260507114205 | 37 | 219 | 3.0 | 6.0 | 0.00 | 0.00 | 0.00 | 72 | |
| 20260507113206 | 36 | 238 | 3.0 | 6.0 | 0.00 | 0.00 | 0.00 | 72 | |
| 20260507112205 | 36 | 248 | 2.0 | 5.0 | 0.00 | 0.00 | 0.00 | 72 | |
| 20260507111205 | 36 | 258 | 2.0 | 3.0 | 0.00 | 0.00 | 0.00 | 72 | |
| 20260507110206 | 36 | 236 | 1.0 | 3.0 | 0.00 | 0.00 | 0.00 | 72 | |
| 20260507105205 | 36 | 235 | 0.0 | 2.0 | 0.00 | 0.00 | 0.00 | 72 | |
| 20260507104205 | 36 | 275 | 1.0 | 2.0 | 0.00 | 0.00 | 0.00 | 72 | |
| 20260507103206 | 36 | 274 | 1.0 | 2.0 | 0.00 | 0.00 | 0.00 | 71 | |
| 20260507102205 | 36 | 285 | 0.0 | 5.0 | 0.00 | 0.00 | 0.00 | 71 | |
| 20260507101206 | 36 | 266 | 1.0 | 3.0 | 0.00 | 0.00 | 0.00 | 71 | |
| 20260507100206 | 35 | 277 | 1.0 | 3.0 | 0.00 | 0.00 | 0.00 | 70 | |
| 20260507095206 | 35 | 272 | 1.0 | 3.0 | 0.00 | 0.00 | 0.00 | 71 | |
| 20260507094206 | 35 | 272 | 1.0 | 3.0 | 0.00 | 0.00 | 0.00 | 71 | |
| 20260507093206 | 35 | 264 | 2.0 | 6.0 | 0.00 | 0.00 | 0.00 | 71 | |
| 20260507092206 | 34 | 284 | 2.0 | 2.0 | 0.00 | 0.00 | 0.00 | 74 | |
| 20260507091206 | 34 | 279 | 1.0 | 2.0 | 0.00 | 0.00 | 0.00 | 74 | |
| 20260507090206 | 34 | 236 | 0.0 | 2.0 | 0.00 | 0.00 | 0.00 | 73 | |
| 20260507085206 | 34 | 297 | 1.0 | 2.0 | 0.00 | 0.00 | 0.00 | 74 | |
| 20260507084206 | 34 | 250 | 0.0 | 0.0 | 0.00 | 0.00 | 0.00 | 73 | |
| 20260507083209 | 34 | 250 | 0.0 | 0.0 | 0.00 | 0.00 | 0.00 | 72 | |
| 20260507082206 | 34 | 250 | 0.0 | 0.0 | 0.00 | 0.00 | 0.00 | 73 | |
| 20260507081205 | 34 | 255 | 0.0 | 1.0 | 0.00 | 0.00 | 0.00 | 75 | |
| 20260507080206 | 33 | 276 | 0.0 | 0.0 | 0.00 | 0.00 | 0.00 | 75 | |
| 20260507075206 | 33 | 276 | 0.0 | 0.0 | 0.00 | 0.00 | 0.00 | 76 | |
| 20260507074206 | 33 | 276 | 0.0 | 0.0 | 0.00 | 0.00 | 0.00 | 76 | |
| 20260507073206 | 33 | 276 | 0.0 | 0.0 | 0.00 | 0.00 | 0.00 | 75 | |
| 20260507072206 | 34 | 276 | 0.0 | 0.0 | 0.00 | 0.00 | 0.00 | 74 | |
| 20260507071206 | 34 | 276 | 0.0 | 0.0 | 0.00 | 0.00 | 0.00 | 74 | |
| 20260507070206 | 33 | 276 | 0.0 | 0.0 | 0.00 | 0.00 | 0.00 | 75 | |
| 20260507065206 | 34 | 276 | 0.0 | 0.0 | 0.00 | 0.00 | 0.00 | 75 | |
| 20260507064206 | 35 | 276 | 0.0 | 0.0 | 0.00 | 0.00 | 0.00 | 72 | |
| 20260507063205 | 35 | 276 | 0.0 | 0.0 | 0.00 | 0.00 | 0.00 | 71 | |
| 20260507062206 | 35 | 276 | 0.0 | 0.0 | 0.00 | 0.00 | 0.00 | 71 | |
| 20260507061206 | 36 | 276 | 0.0 | 1.0 | 0.00 | 0.00 | 0.00 | 70 | |
| 20260507060206 | 36 | 278 | 0.0 | 0.0 | 0.00 | 0.00 | 0.00 | 69 | |
| 20260507055206 | 36 | 236 | 0.0 | 1.0 | 0.00 | 0.00 | 0.00 | 70 | |
| 20260507054205 | 36 | 230 | 0.0 | 0.0 | 0.00 | 0.00 | 0.00 | 71 | |
| 20260507053206 | 35 | 230 | 0.0 | 0.0 | 0.00 | 0.00 | 0.00 | 72 | |
| 20260507052206 | 35 | 230 | 0.0 | 0.0 | 0.00 | 0.00 | 0.00 | 71 | |
| 20260507051205 | 35 | 239 | 0.0 | 0.0 | 0.00 | 0.00 | 0.00 | 72 | |
| 20260507050206 | 35 | 239 | 0.0 | 0.0 | 0.00 | 0.00 | 0.00 | 72 | |
| 20260507045205 | 35 | 239 | 0.0 | 0.0 | 0.00 | 0.00 | 0.00 | 72 | |
| 20260507044206 | 36 | 239 | 0.0 | 0.0 | 0.00 | 0.00 | 0.00 | 71 | |
| 20260507043210 | 36 | 239 | 0.0 | 0.0 | 0.00 | 0.00 | 0.00 | 70 | |
| 20260507042206 | 36 | 239 | 0.0 | 0.0 | 0.00 | 0.00 | 0.00 | 68 | |
| 20260507041205 | 37 | 239 | 0.0 | 0.0 | 0.00 | 0.00 | 0.00 | 70 | |
| 20260507040206 | 37 | 239 | 0.0 | 0.0 | 0.00 | 0.00 | 0.00 | 69 | |
| 20260507035206 | 37 | 239 | 0.0 | 0.0 | 0.00 | 0.00 | 0.00 | 68 | |
| 20260507034206 | 38 | 239 | 0.0 | 0.0 | 0.00 | 0.00 | 0.00 | 66 | |
| 20260507033206 | 38 | 268 | 0.0 | 0.0 | 0.00 | 0.00 | 0.00 | 65 | |
| 20260507032205 | 39 | 268 | 0.0 | 0.0 | 0.00 | 0.00 | 0.00 | 63 | |
| 20260507031206 | 39 | 268 | 0.0 | 0.0 | 0.00 | 0.00 | 0.00 | 62 | |
| 20260507030205 | 40 | 268 | 0.0 | 1.0 | 0.00 | 0.00 | 0.00 | 61 | |
| 20260507025206 | 40 | 250 | 0.0 | 1.0 | 0.00 | 0.00 | 0.00 | 59 | |
| 20260507024206 | 41 | 271 | 0.0 | 1.0 | 0.00 | 0.00 | 0.00 | 57 | |
| 20260507023206 | 42 | 316 | 1.0 | 3.0 | 0.00 | 0.00 | 0.00 | 55 | |
| 20260507022206 | 42 | 6 | 1.0 | 5.0 | 0.00 | 0.00 | 0.00 | 55 | |
| 20260507021206 | 43 | 330 | 2.0 | 3.0 | 0.00 | 0.00 | 0.00 | 55 | |
| 20260507020206 | 43 | 1 | 2.0 | 6.0 | 0.00 | 0.00 | 0.00 | 53 | |
| 20260507015206 | 43 | 3 | 1.0 | 7.0 | 0.00 | 0.00 | 0.00 | 52 | |
| 20260507014205 | 44 | 333 | 2.0 | 8.0 | 0.00 | 0.00 | 0.00 | 51 | |
| 20260507013206 | 45 | 30 | 2.0 | 9.0 | 0.00 | 0.00 | 0.00 | 50 | |
| 20260507012206 | 45 | 356 | 5.0 | 13.0 | 0.00 | 0.00 | 0.00 | 49 | |
| 20260507011205 | 45 | 346 | 3.0 | 10.0 | 0.00 | 0.00 | 0.00 | 48 | |
| 20260507010206 | 46 | 14 | 2.0 | 8.0 | 0.00 | 0.00 | 0.00 | 49 | |
| 20260507005206 | 46 | 303 | 3.0 | 9.0 | 0.00 | 0.00 | 0.00 | 48 | |
| 20260507004206 | 45 | 316 | 6.0 | 13.0 | 0.00 | 0.00 | 0.00 | 47 | |
| 20260507003209 | 46 | 12 | 5.0 | 13.0 | 0.00 | 0.00 | 0.00 | 47 | |
| 20260507002206 | 46 | 314 | 6.0 | 14.0 | 0.00 | 0.00 | 0.00 | 47 | |
| 20260507001205 | 46 | 297 | 4.0 | 14.0 | 0.00 | 0.00 | 0.00 | 46 | |
| 20260507000206 | 46 | 308 | 5.0 | 14.0 | 0.00 | 0.00 | 0.00 | 47 | |
| 20260506235205 | 47 | 350 | 4.0 | 12.0 | 0.00 | 0.00 | 0.00 | 47 | |
| 20260506234206 | 46 | 341 | 9.0 | 17.0 | 0.00 | 0.00 | 0.00 | 46 | |
| 20260506233206 | 47 | 354 | 6.0 | 16.0 | 0.00 | 0.00 | 0.00 | 46 | |
| 20260506232206 | 47 | 312 | 6.0 | 14.0 | 0.00 | 0.00 | 0.00 | 46 | |
| 20260506231205 | 47 | 309 | 5.0 | 12.0 | 0.00 | 0.00 | 0.00 | 47 |